createdAt,value
2022-12-04T00:01:51.384Z,21.03
2022-12-04T00:04:55.143Z,19.47
2022-12-04T00:07:59.242Z,17.90
2022-12-04T00:11:03.335Z,18.63
2022-12-04T00:14:08.504Z,20.90
2022-12-04T00:17:12.215Z,19.10
2022-12-04T00:20:15.984Z,18.07
2022-12-04T00:23:19.854Z,18.97
2022-12-04T00:26:25.329Z,19.27
2022-12-04T00:29:30.747Z,20.47
2022-12-04T00:32:34.523Z,20.00
2022-12-04T00:35:38.207Z,20.63
2022-12-04T00:38:42.965Z,20.63
2022-12-04T00:41:46.634Z,20.37
2022-12-04T00:44:52.043Z,18.43
2022-12-04T00:47:55.850Z,18.87
2022-12-04T00:51:03.701Z,21.23
2022-12-04T00:54:07.505Z,21.73
2022-12-04T00:57:11.244Z,19.40
2022-12-04T01:00:17.014Z,19.40
2022-12-04T01:03:20.749Z,19.97
2022-12-04T01:06:26.128Z,19.57
2022-12-04T01:09:29.954Z,19.07
2022-12-04T01:12:33.564Z,18.60
2022-12-04T01:15:43.894Z,19.70
2022-12-04T01:18:48.027Z,18.43
2022-12-04T01:21:51.806Z,20.13
2022-12-04T01:24:57.190Z,17.93
2022-12-04T01:28:00.983Z,16.00
2022-12-04T01:31:08.803Z,19.63
2022-12-04T01:34:12.452Z,19.33
2022-12-04T01:37:16.265Z,18.63
2022-12-04T01:40:20.033Z,20.27
2022-12-04T01:43:24.606Z,18.43
2022-12-04T01:46:29.554Z,17.50
2022-12-04T01:49:39.653Z,17.90
2022-12-04T01:52:43.932Z,17.20
2022-12-04T01:55:49.012Z,16.07
2022-12-04T01:58:55.560Z,18.23
2022-12-04T02:02:05.877Z,18.27
2022-12-04T02:05:13.221Z,19.37
2022-12-04T02:08:17.297Z,20.07
2022-12-04T02:11:30.925Z,20.60
2022-12-04T02:14:43.263Z,17.93
2022-12-04T02:17:55.547Z,18.47
2022-12-04T02:21:07.694Z,19.57
2022-12-04T02:24:27.342Z,18.47
2022-12-04T02:27:59.883Z,15.53
2022-12-04T02:31:06.397Z,17.00
2022-12-04T02:34:16.949Z,17.57
2022-12-04T02:37:29.274Z,16.17
2022-12-04T02:40:40.260Z,15.83
2022-12-04T02:43:48.912Z,17.73
2022-12-04T02:46:57.694Z,17.67
2022-12-04T02:50:03.297Z,19.17
2022-12-04T02:53:12.404Z,18.77
2022-12-04T02:56:20.972Z,17.70
2022-12-04T02:59:31.807Z,18.17
2022-12-04T03:02:39.568Z,20.77
2022-12-04T03:05:47.972Z,19.03
2022-12-04T03:08:56.845Z,20.17
2022-12-04T03:12:07.784Z,18.50
2022-12-04T03:15:19.362Z,18.50
2022-12-04T03:18:28.994Z,17.93
2022-12-04T03:21:38.222Z,21.17
2022-12-04T03:24:46.984Z,19.07
2022-12-04T03:27:56.244Z,13.43
2022-12-04T03:31:06.256Z,18.07
2022-12-04T03:34:12.309Z,15.17
2022-12-04T03:37:20.061Z,18.13
2022-12-04T03:40:29.430Z,18.10
2022-12-04T03:43:39.251Z,20.50
2022-12-04T03:46:50.823Z,21.10
2022-12-04T03:50:01.643Z,18.77
2022-12-04T03:53:11.189Z,17.57
2022-12-04T03:56:19.219Z,16.93
2022-12-04T03:59:28.574Z,15.27
2022-12-04T04:02:39.652Z,19.47
2022-12-04T04:05:47.611Z,20.00
2022-12-04T04:08:56.374Z,23.50
2022-12-04T04:12:04.535Z,17.07
2022-12-04T04:15:30.040Z,19.50
2022-12-04T04:18:52.709Z,22.73
2022-12-04T04:22:14.405Z,25.33
2022-12-04T04:25:21.995Z,23.73
2022-12-04T04:28:30.991Z,16.70
2022-12-04T04:31:41.041Z,17.10
2022-12-04T04:34:52.103Z,15.27
2022-12-04T04:38:02.764Z,16.30
2022-12-04T04:41:13.231Z,16.87
2022-12-04T04:44:22.710Z,24.93
2022-12-04T04:47:32.147Z,18.80
2022-12-04T04:50:38.910Z,19.57
2022-12-04T04:53:46.984Z,17.47
2022-12-04T04:56:50.855Z,24.83
2022-12-04T04:59:54.618Z,18.30
2022-12-04T05:02:58.434Z,18.00
2022-12-04T05:06:03.533Z,14.40
2022-12-04T05:09:07.280Z,13.30
2022-12-04T05:12:11.630Z,12.67
2022-12-04T05:15:15.239Z,14.60
2022-12-04T05:18:18.935Z,13.23
2022-12-04T05:21:23.920Z,14.00
2022-12-04T05:24:27.724Z,13.90
2022-12-04T05:27:32.174Z,15.10
2022-12-04T05:30:36.331Z,16.53
2022-12-04T05:33:39.847Z,17.20
2022-12-04T05:36:44.799Z,16.87
2022-12-04T05:39:49.188Z,16.80
2022-12-04T05:42:52.743Z,15.53
2022-12-04T05:45:56.734Z,14.30
2022-12-04T05:49:00.338Z,12.53
2022-12-04T05:52:07.357Z,14.67
2022-12-04T05:55:11.097Z,15.67
2022-12-04T05:58:14.691Z,17.33
2022-12-04T06:01:21.173Z,22.60
2022-12-04T06:04:25.115Z,17.17
2022-12-04T06:07:30.270Z,17.80
2022-12-04T06:10:34.043Z,17.27
2022-12-04T06:13:38.004Z,14.40
2022-12-04T06:16:43.638Z,17.37
2022-12-04T06:19:47.598Z,17.83
2022-12-04T06:22:52.834Z,19.70
2022-12-04T06:25:58.004Z,17.10
2022-12-04T06:29:04.547Z,16.70
2022-12-04T06:32:08.304Z,17.43
2022-12-04T06:35:12.103Z,15.73
2022-12-04T06:38:21.143Z,19.07
2022-12-04T06:41:26.832Z,16.73
2022-12-04T06:44:30.614Z,18.87
2022-12-04T06:47:45.523Z,20.80
2022-12-04T06:50:49.244Z,18.03
2022-12-04T06:53:56.823Z,27.87
2022-12-04T06:57:01.226Z,39.63
2022-12-04T07:00:05.954Z,23.20
2022-12-04T07:03:09.773Z,19.07
2022-12-04T07:06:19.314Z,17.67
2022-12-04T07:09:24.741Z,16.30
2022-12-04T07:12:28.564Z,14.73
2022-12-04T07:15:34.795Z,19.87
2022-12-04T07:18:42.371Z,17.53
2022-12-04T07:21:48.901Z,18.43
2022-12-04T07:24:54.323Z,16.50
2022-12-04T07:27:58.804Z,16.97
2022-12-04T07:31:09.224Z,18.20
2022-12-04T07:34:18.136Z,16.53
2022-12-04T07:37:21.883Z,14.97
2022-12-04T07:40:27.056Z,15.50
2022-12-04T07:43:31.723Z,17.03
2022-12-04T07:46:35.556Z,15.93
2022-12-04T07:49:39.564Z,16.23
2022-12-04T07:52:43.165Z,16.43
2022-12-04T07:55:53.653Z,15.37
2022-12-04T07:58:57.313Z,14.00
2022-12-04T08:02:01.132Z,13.63
2022-12-04T08:05:05.023Z,15.83
2022-12-04T08:08:09.041Z,15.67
2022-12-04T08:11:16.526Z,15.97
2022-12-04T08:14:20.284Z,15.87
2022-12-04T08:17:24.081Z,16.07
2022-12-04T08:20:27.924Z,15.57
2022-12-04T08:23:31.690Z,15.43
2022-12-04T08:26:36.925Z,11.33
2022-12-04T08:29:40.845Z,15.03
2022-12-04T08:32:45.703Z,16.10
2022-12-04T08:35:49.394Z,14.83
2022-12-04T08:38:53.233Z,14.83
2022-12-04T08:41:58.470Z,15.47
2022-12-04T08:45:02.149Z,15.77
2022-12-04T08:48:06.376Z,13.40
2022-12-04T08:51:15.871Z,14.27
2022-12-04T08:54:19.774Z,11.70
2022-12-04T08:57:24.884Z,14.60
2022-12-04T09:00:28.727Z,14.13
2022-12-04T09:03:32.476Z,11.83
2022-12-04T09:06:36.144Z,13.93
2022-12-04T09:09:44.932Z,13.93
2022-12-04T09:12:53.169Z,14.33
2022-12-04T09:15:57.097Z,13.90
2022-12-04T09:19:00.993Z,10.63
2022-12-04T09:22:04.736Z,14.97
2022-12-04T09:25:09.244Z,15.63
2022-12-04T09:28:14.317Z,14.07
2022-12-04T09:31:18.246Z,14.87
2022-12-04T09:34:22.084Z,14.90
2022-12-04T09:37:25.723Z,16.50
2022-12-04T09:40:37.736Z,15.57
2022-12-04T09:43:49.354Z,16.97
2022-12-04T09:46:56.556Z,17.00
2022-12-04T09:50:05.423Z,19.23
2022-12-04T09:53:15.654Z,17.50
2022-12-04T09:56:21.277Z,17.53
2022-12-04T09:59:29.214Z,17.07
2022-12-04T10:02:38.879Z,15.87
2022-12-04T10:05:56.560Z,16.03
2022-12-04T10:09:04.734Z,14.33
2022-12-04T10:12:17.744Z,13.63
2022-12-04T10:15:31.227Z,12.10
2022-12-04T10:18:46.044Z,12.03
2022-12-04T10:22:05.723Z,10.57
2022-12-04T10:25:14.954Z,9.27
2022-12-04T10:28:27.367Z,8.50
2022-12-04T10:31:36.841Z,9.50
2022-12-04T10:34:45.633Z,10.03
2022-12-04T10:37:54.527Z,7.70
2022-12-04T10:41:07.743Z,10.47
2022-12-04T10:44:18.559Z,9.43
2022-12-04T10:47:26.612Z,8.43
2022-12-04T10:50:31.743Z,9.70
2022-12-04T10:53:39.144Z,8.53
2022-12-04T10:56:53.323Z,9.03
2022-12-04T11:00:00.529Z,8.10
2022-12-04T11:03:12.789Z,10.50
2022-12-04T11:06:17.404Z,10.23
2022-12-04T11:09:24.762Z,18.33
2022-12-04T11:12:29.415Z,19.47
2022-12-04T11:15:38.164Z,14.20
2022-12-04T11:18:52.495Z,9.50
2022-12-04T11:22:00.513Z,10.00
2022-12-04T11:25:05.813Z,8.63
2022-12-04T11:28:41.556Z,11.43
2022-12-04T11:31:49.477Z,8.77
2022-12-04T11:35:00.954Z,8.30
2022-12-04T11:38:15.247Z,9.90
2022-12-04T11:41:28.104Z,7.83
2022-12-04T11:44:34.334Z,8.47
2022-12-04T11:47:38.842Z,14.77
2022-12-04T11:50:51.514Z,9.27
2022-12-04T11:54:02.264Z,8.27
2022-12-04T11:57:17.765Z,9.73
2022-12-04T12:00:24.385Z,7.83
2022-12-04T12:03:37.883Z,8.77
2022-12-04T12:07:00.343Z,9.67
2022-12-04T12:10:12.823Z,7.37
2022-12-04T12:13:26.842Z,7.53
2022-12-04T12:16:48.533Z,6.77
2022-12-04T12:20:06.857Z,7.33
2022-12-04T12:23:33.163Z,6.40
2022-12-04T12:26:47.444Z,7.23
2022-12-04T12:30:01.365Z,7.80
2022-12-04T12:33:16.293Z,7.47
2022-12-04T12:36:25.791Z,6.57
2022-12-04T12:39:40.553Z,8.97
2022-12-04T12:42:56.623Z,6.70
2022-12-04T12:46:08.595Z,6.07
2022-12-04T12:49:20.424Z,6.60
2022-12-04T12:52:33.503Z,6.50
2022-12-04T12:55:46.823Z,5.17
2022-12-04T12:58:56.395Z,6.60
2022-12-04T13:02:08.582Z,4.07
2022-12-04T13:05:18.687Z,4.30
2022-12-04T13:08:28.112Z,4.60
2022-12-04T13:11:35.974Z,4.50
2022-12-04T13:14:45.949Z,4.67
2022-12-04T13:17:57.693Z,4.80
2022-12-04T13:21:07.393Z,4.87
2022-12-04T13:24:41.032Z,3.80
2022-12-04T13:28:03.105Z,3.87
2022-12-04T13:31:21.583Z,3.37
2022-12-04T13:34:50.004Z,4.13
2022-12-04T13:38:10.373Z,2.70
2022-12-04T13:41:22.233Z,3.50
2022-12-04T13:44:31.903Z,3.13
2022-12-04T13:47:39.063Z,3.50
2022-12-04T13:50:45.103Z,3.73
2022-12-04T13:53:51.395Z,3.20
2022-12-04T13:56:59.435Z,3.20
2022-12-04T14:00:27.533Z,3.67
2022-12-04T14:03:36.333Z,3.80
2022-12-04T14:06:46.824Z,3.30
2022-12-04T14:09:55.918Z,4.20
2022-12-04T14:13:04.903Z,4.60
2022-12-04T14:16:22.925Z,4.87
2022-12-04T14:19:35.986Z,5.33
2022-12-04T14:22:44.954Z,3.80
2022-12-04T14:25:48.623Z,4.73
2022-12-04T14:28:52.724Z,4.80
2022-12-04T14:32:01.814Z,4.50
2022-12-04T14:35:06.423Z,5.10
2022-12-04T14:38:19.746Z,4.67
2022-12-04T14:41:28.432Z,5.87
2022-12-04T14:44:33.543Z,7.17
2022-12-04T14:47:44.907Z,7.77
2022-12-04T14:50:59.246Z,6.40
2022-12-04T14:54:15.034Z,33.70
2022-12-04T14:57:44.553Z,13.03
2022-12-04T15:00:52.673Z,8.27
2022-12-04T15:04:00.033Z,7.13
2022-12-04T15:07:04.214Z,5.03
2022-12-04T15:10:38.471Z,5.03
2022-12-04T15:13:42.205Z,5.40
2022-12-04T15:16:45.783Z,7.60
2022-12-04T15:19:51.023Z,6.10
2022-12-04T15:22:59.095Z,5.40
2022-12-04T15:26:06.254Z,5.50
2022-12-04T15:29:11.144Z,5.40
2022-12-04T15:32:15.193Z,5.17
2022-12-04T15:35:27.163Z,5.27
2022-12-04T15:38:31.153Z,7.47
2022-12-04T15:41:37.216Z,8.63
2022-12-04T15:44:40.946Z,7.10
2022-12-04T15:47:53.853Z,6.90
2022-12-04T15:51:05.832Z,6.90
2022-12-04T15:54:16.351Z,5.07
2022-12-04T15:57:28.234Z,5.00
2022-12-04T16:00:34.485Z,8.00
2022-12-04T16:03:45.629Z,10.73
2022-12-04T16:06:53.997Z,8.40
2022-12-04T16:10:03.758Z,13.13
2022-12-04T16:13:07.874Z,9.87
2022-12-04T16:16:17.389Z,10.53
2022-12-04T16:19:31.223Z,10.27
2022-12-04T16:22:36.374Z,11.23
2022-12-04T16:25:40.074Z,11.10
2022-12-04T16:28:44.130Z,12.50
2022-12-04T16:31:47.919Z,11.13
2022-12-04T16:34:51.643Z,17.63
2022-12-04T16:37:56.853Z,15.47
2022-12-04T16:41:00.543Z,13.17
2022-12-04T16:44:04.334Z,11.53
2022-12-04T16:47:08.285Z,12.03
2022-12-04T16:50:12.194Z,9.73
2022-12-04T16:53:19.945Z,13.97
2022-12-04T16:56:24.322Z,10.87
2022-12-04T16:59:27.944Z,11.80
2022-12-04T17:02:32.154Z,12.33
2022-12-04T17:05:36.077Z,11.80
2022-12-04T17:08:41.226Z,15.63
2022-12-04T17:11:45.679Z,13.23
2022-12-04T17:14:49.403Z,23.03
2022-12-04T17:17:53.126Z,16.73
2022-12-04T17:20:57.103Z,14.30
2022-12-04T17:24:02.526Z,12.37
2022-12-04T17:27:08.033Z,13.07
2022-12-04T17:30:13.614Z,15.80
2022-12-04T17:33:17.266Z,15.20
2022-12-04T17:36:25.193Z,13.20
2022-12-04T17:39:30.394Z,12.77
2022-12-04T17:42:34.584Z,19.80
2022-12-04T17:45:42.214Z,16.90
2022-12-04T17:48:46.073Z,14.93
2022-12-04T17:51:49.746Z,14.03
2022-12-04T17:54:55.333Z,14.63
2022-12-04T17:57:59.263Z,13.07
2022-12-04T18:01:04.885Z,14.07
2022-12-04T18:04:09.363Z,13.23
2022-12-04T18:07:13.124Z,12.33
2022-12-04T18:10:18.653Z,13.00
2022-12-04T18:13:22.492Z,14.73
2022-12-04T18:16:27.351Z,11.90
2022-12-04T18:19:32.084Z,10.80
2022-12-04T18:22:35.774Z,12.83
2022-12-04T18:25:40.983Z,12.37
2022-12-04T18:28:45.095Z,14.83
2022-12-04T18:31:49.073Z,15.97
2022-12-04T18:34:52.921Z,15.30
2022-12-04T18:37:57.092Z,14.17
2022-12-04T18:41:05.914Z,14.00
2022-12-04T18:44:09.614Z,13.30
2022-12-04T18:47:13.302Z,15.63
2022-12-04T18:50:17.616Z,14.37
2022-12-04T18:53:25.273Z,14.67
2022-12-04T18:56:31.063Z,15.13
2022-12-04T18:59:36.642Z,15.30
2022-12-04T19:02:40.429Z,16.50
2022-12-04T19:05:50.038Z,13.87
2022-12-04T19:08:53.783Z,15.03
2022-12-04T19:11:59.527Z,16.70
2022-12-04T19:15:03.696Z,24.17
2022-12-04T19:18:07.544Z,15.30
2022-12-04T19:21:11.294Z,12.90
2022-12-04T19:24:15.645Z,12.63
2022-12-04T19:27:20.644Z,12.37
2022-12-04T19:30:24.356Z,12.20
2022-12-04T19:33:29.467Z,11.90
2022-12-04T19:36:34.851Z,12.50
2022-12-04T19:39:38.764Z,13.33
2022-12-04T19:42:44.043Z,12.30
2022-12-04T19:45:49.911Z,12.40
2022-12-04T19:48:57.065Z,14.47
2022-12-04T19:52:00.705Z,17.63
2022-12-04T19:55:04.593Z,22.27
2022-12-04T19:58:09.765Z,18.23
2022-12-04T20:01:16.263Z,11.00
2022-12-04T20:04:20.114Z,11.23
2022-12-04T20:07:23.773Z,13.57
2022-12-04T20:10:27.522Z,9.67
2022-12-04T20:13:35.867Z,8.83
2022-12-04T20:16:40.203Z,10.53
2022-12-04T20:19:43.957Z,32.10
2022-12-04T20:22:47.665Z,29.17
2022-12-04T20:25:51.636Z,21.37
2022-12-04T20:28:58.584Z,17.07
2022-12-04T20:32:02.307Z,15.47
2022-12-04T20:35:07.253Z,19.43
2022-12-04T20:38:10.894Z,21.87
2022-12-04T20:41:16.384Z,14.87
2022-12-04T20:44:21.606Z,26.77
2022-12-04T20:47:26.004Z,12.00
2022-12-04T20:50:29.723Z,27.07
2022-12-04T20:53:33.455Z,12.50
2022-12-04T20:56:39.404Z,12.07
2022-12-04T20:59:44.484Z,10.60
2022-12-04T21:02:48.276Z,11.23
2022-12-04T21:05:52.043Z,9.53
2022-12-04T21:08:56.938Z,9.67
2022-12-04T21:12:00.720Z,11.33
2022-12-04T21:15:24.133Z,15.90
2022-12-04T21:18:27.806Z,13.10
2022-12-04T21:21:31.655Z,12.97
2022-12-04T21:24:38.872Z,11.80
2022-12-04T21:27:42.703Z,11.77
2022-12-04T21:30:47.844Z,12.57
2022-12-04T21:33:51.683Z,11.83
2022-12-04T21:36:55.414Z,9.87
2022-12-04T21:39:59.808Z,10.13
2022-12-04T21:43:03.773Z,13.07
2022-12-04T21:46:09.893Z,15.93
2022-12-04T21:49:15.004Z,13.90
2022-12-04T21:52:19.535Z,13.80
2022-12-04T21:55:23.166Z,13.70
2022-12-04T21:58:29.384Z,14.17
2022-12-04T22:01:34.750Z,13.90
2022-12-04T22:04:38.623Z,11.90
2022-12-04T22:07:42.366Z,12.50
2022-12-04T22:10:48.681Z,12.57
2022-12-04T22:13:52.353Z,13.47
2022-12-04T22:16:57.745Z,11.33
2022-12-04T22:20:01.453Z,16.27
2022-12-04T22:23:05.844Z,12.60
2022-12-04T22:26:10.663Z,11.17
2022-12-04T22:29:48.660Z,12.80
2022-12-04T22:32:39.803Z,11.50
2022-12-04T22:35:43.563Z,12.37
2022-12-04T22:39:08.221Z,16.57
2022-12-04T22:42:11.494Z,12.33
2022-12-04T22:45:15.194Z,10.53
2022-12-04T22:48:20.295Z,11.07
2022-12-04T22:51:24.215Z,10.80
2022-12-04T22:54:27.803Z,10.23
2022-12-04T22:57:31.524Z,11.53
2022-12-04T23:00:35.275Z,11.90
2022-12-04T23:03:40.723Z,11.27
2022-12-04T23:06:44.346Z,11.40
2022-12-04T23:09:48.148Z,10.77
2022-12-04T23:12:51.942Z,10.57
2022-12-04T23:15:55.665Z,11.30
2022-12-04T23:19:01.024Z,10.33
2022-12-04T23:22:04.753Z,10.70
2022-12-04T23:25:09.493Z,10.30
2022-12-04T23:28:13.186Z,11.43
2022-12-04T23:31:17.171Z,11.03
2022-12-04T23:34:22.334Z,11.10
2022-12-04T23:37:25.905Z,11.23
2022-12-04T23:40:29.614Z,10.13
2022-12-04T23:43:33.923Z,10.50
2022-12-04T23:46:38.040Z,10.93
2022-12-04T23:49:43.264Z,10.20
2022-12-04T23:52:46.954Z,10.33
2022-12-04T23:55:57.593Z,10.73
2022-12-04T23:59:01.373Z,10.77
